createdAt,value
2017-01-01T00:00:58.666Z,0
2017-01-01T00:01:58.686Z,0
2017-01-01T00:02:58.650Z,0
2017-01-01T00:03:58.628Z,0
2017-01-01T00:04:58.635Z,0
2017-01-01T00:05:58.642Z,0
2017-01-01T00:06:58.666Z,0
2017-01-01T00:07:58.666Z,0
2017-01-01T00:08:58.636Z,0
2017-01-01T00:09:58.636Z,0
2017-01-01T00:10:58.644Z,0
2017-01-01T00:11:58.667Z,0
2017-01-01T00:12:58.666Z,0
2017-01-01T00:13:58.672Z,0
2017-01-01T00:14:58.695Z,0
2017-01-01T00:15:58.657Z,0
2017-01-01T00:16:58.662Z,0
2017-01-01T00:17:58.659Z,0
2017-01-01T00:18:58.663Z,0
2017-01-01T00:19:58.655Z,0
2017-01-01T00:20:58.672Z,0
2017-01-01T00:21:58.675Z,0
2017-01-01T00:22:58.671Z,0
2017-01-01T00:23:58.751Z,0
2017-01-01T00:24:58.723Z,0
2017-01-01T00:25:58.675Z,0
2017-01-01T00:26:58.670Z,0
2017-01-01T00:27:58.651Z,0
2017-01-01T00:28:58.666Z,0
2017-01-01T00:29:58.675Z,0
2017-01-01T00:30:58.651Z,0
2017-01-01T00:31:58.642Z,0
2017-01-01T00:32:58.624Z,0
2017-01-01T00:33:58.642Z,0
2017-01-01T00:34:58.643Z,0
2017-01-01T00:35:58.643Z,0
2017-01-01T00:36:58.650Z,0
2017-01-01T00:37:58.635Z,0
2017-01-01T00:38:58.633Z,0
2017-01-01T00:39:58.664Z,0
2017-01-01T00:40:58.687Z,0
2017-01-01T00:41:58.663Z,0
2017-01-01T00:42:58.680Z,0
2017-01-01T00:43:58.627Z,0
2017-01-01T00:44:58.650Z,0
2017-01-01T00:45:58.640Z,0
2017-01-01T00:46:58.663Z,0
2017-01-01T00:47:58.655Z,0
2017-01-01T00:48:58.649Z,0
2017-01-01T00:49:58.670Z,0
2017-01-01T00:50:58.678Z,0
2017-01-01T00:51:58.662Z,0
2017-01-01T00:52:58.673Z,0
2017-01-01T00:53:58.646Z,0
2017-01-01T00:54:58.678Z,0
2017-01-01T00:55:58.657Z,0
2017-01-01T00:56:58.671Z,0
2017-01-01T00:57:58.694Z,0
2017-01-01T00:58:58.721Z,0
2017-01-01T00:59:58.653Z,0
2017-01-01T01:00:58.658Z,0
2017-01-01T01:01:58.697Z,0
2017-01-01T01:02:58.643Z,0
2017-01-01T01:03:58.707Z,0
2017-01-01T01:04:58.655Z,0
2017-01-01T01:05:58.653Z,0
2017-01-01T01:06:58.696Z,0
2017-01-01T01:07:58.666Z,0
2017-01-01T01:08:58.655Z,0
2017-01-01T01:09:58.678Z,0
2017-01-01T01:10:58.655Z,0
2017-01-01T01:11:58.691Z,0
2017-01-01T01:12:58.668Z,0
2017-01-01T01:13:58.670Z,0
2017-01-01T01:14:58.682Z,0
2017-01-01T01:15:58.659Z,0
2017-01-01T01:16:58.713Z,0
2017-01-01T01:17:58.673Z,0
2017-01-01T01:18:58.677Z,0
2017-01-01T01:19:58.667Z,0
2017-01-01T01:20:58.664Z,0
2017-01-01T01:21:58.695Z,0
2017-01-01T01:22:58.693Z,0
2017-01-01T01:23:58.680Z,0
2017-01-01T01:24:58.673Z,0
2017-01-01T01:25:58.681Z,0
2017-01-01T01:26:58.715Z,0
2017-01-01T01:27:58.685Z,0
2017-01-01T01:28:58.684Z,0
2017-01-01T01:29:58.676Z,0
2017-01-01T01:30:58.746Z,0
2017-01-01T01:31:58.670Z,0
2017-01-01T01:32:58.697Z,0
2017-01-01T01:33:58.682Z,0
2017-01-01T01:34:58.679Z,0
2017-01-01T01:35:58.717Z,0
2017-01-01T01:36:58.700Z,0
2017-01-01T01:37:58.695Z,0
2017-01-01T01:38:58.719Z,0
2017-01-01T01:39:58.748Z,0
2017-01-01T01:40:58.734Z,0
2017-01-01T01:41:58.680Z,0
2017-01-01T01:42:58.679Z,0
2017-01-01T01:43:58.727Z,0
2017-01-01T01:44:58.676Z,0
2017-01-01T01:45:58.725Z,0
2017-01-01T01:46:58.707Z,0
2017-01-01T01:47:58.682Z,0
2017-01-01T01:48:58.717Z,0
2017-01-01T01:49:58.749Z,0
2017-01-01T01:50:58.741Z,0
2017-01-01T01:51:58.720Z,0
2017-01-01T01:52:58.705Z,0
2017-01-01T01:53:58.731Z,0
2017-01-01T01:54:58.700Z,0
2017-01-01T01:55:58.698Z,0
2017-01-01T01:56:58.691Z,0
2017-01-01T01:57:58.698Z,0
2017-01-01T01:58:58.759Z,0
2017-01-01T01:59:58.740Z,0
2017-01-01T02:00:58.702Z,0
2017-01-01T02:01:59.389Z,0
2017-01-01T02:02:58.717Z,0
2017-01-01T02:03:58.756Z,0
2017-01-01T02:04:58.731Z,0
2017-01-01T02:05:58.736Z,0
2017-01-01T02:06:58.702Z,0
2017-01-01T02:07:58.736Z,0
2017-01-01T02:08:58.734Z,0
2017-01-01T02:09:58.761Z,0
2017-01-01T02:10:58.724Z,0
2017-01-01T02:11:58.779Z,0
2017-01-01T02:12:58.762Z,0
2017-01-01T02:13:58.729Z,0
2017-01-01T02:14:58.748Z,0
2017-01-01T02:15:58.773Z,0
2017-01-01T02:16:58.758Z,0
2017-01-01T02:17:58.761Z,0
2017-01-01T02:18:58.755Z,0
2017-01-01T02:19:58.728Z,0
2017-01-01T02:20:58.710Z,0
2017-01-01T02:21:58.754Z,0
2017-01-01T02:22:58.738Z,0
2017-01-01T02:23:58.700Z,0
2017-01-01T02:24:58.737Z,0
2017-01-01T02:25:58.759Z,0
2017-01-01T02:26:58.739Z,0
2017-01-01T02:27:58.747Z,0
2017-01-01T02:28:58.744Z,0
2017-01-01T02:29:58.731Z,0
2017-01-01T02:30:58.717Z,0
2017-01-01T02:31:58.792Z,0
2017-01-01T02:32:58.726Z,0
2017-01-01T02:33:58.776Z,0
2017-01-01T02:34:58.754Z,0
2017-01-01T02:35:58.718Z,0
2017-01-01T02:36:58.740Z,0
2017-01-01T02:37:58.736Z,0
2017-01-01T02:38:58.721Z,0
2017-01-01T02:39:58.726Z,0
2017-01-01T02:40:58.720Z,0
2017-01-01T02:41:58.728Z,0
2017-01-01T02:42:58.737Z,0
2017-01-01T02:43:58.714Z,0
2017-01-01T02:44:58.735Z,0
2017-01-01T02:45:58.742Z,0
2017-01-01T02:46:58.733Z,0
2017-01-01T02:47:58.740Z,0
2017-01-01T02:48:58.738Z,0
2017-01-01T02:49:58.795Z,0
2017-01-01T02:50:58.733Z,0
2017-01-01T02:51:58.712Z,0
2017-01-01T02:52:58.764Z,0
2017-01-01T02:53:58.729Z,0
2017-01-01T02:54:58.744Z,0
2017-01-01T02:55:58.710Z,0
2017-01-01T02:56:58.732Z,0
2017-01-01T02:57:58.768Z,0
2017-01-01T02:58:58.775Z,0
2017-01-01T02:59:58.743Z,0
2017-01-01T03:00:58.728Z,0
2017-01-01T03:01:58.725Z,0
2017-01-01T03:02:58.743Z,0
2017-01-01T03:03:58.724Z,0
2017-01-01T03:04:58.732Z,0
2017-01-01T03:05:58.735Z,0
2017-01-01T03:06:58.759Z,0
2017-01-01T03:07:58.766Z,0
2017-01-01T03:08:58.739Z,0
2017-01-01T03:09:58.747Z,0
2017-01-01T03:10:58.725Z,0
2017-01-01T03:11:58.771Z,0
2017-01-01T03:12:58.794Z,0
2017-01-01T03:13:58.766Z,0
2017-01-01T03:14:58.801Z,0
2017-01-01T03:15:58.763Z,0
2017-01-01T03:16:58.821Z,0
2017-01-01T03:17:58.731Z,0
2017-01-01T03:18:58.739Z,0
2017-01-01T03:19:58.775Z,0
2017-01-01T03:20:58.766Z,0
2017-01-01T03:21:58.829Z,0
2017-01-01T03:22:58.779Z,0
2017-01-01T03:23:58.756Z,0
2017-01-01T03:24:58.735Z,0
2017-01-01T03:25:58.784Z,0
2017-01-01T03:26:58.775Z,0
2017-01-01T03:27:58.782Z,0
2017-01-01T03:28:58.757Z,0
2017-01-01T03:29:58.780Z,0
2017-01-01T03:30:58.749Z,0
2017-01-01T03:31:58.780Z,0
2017-01-01T03:32:58.773Z,0
2017-01-01T03:33:58.758Z,0
2017-01-01T03:34:58.814Z,0
2017-01-01T03:35:58.777Z,0
2017-01-01T03:36:58.779Z,0
2017-01-01T03:37:58.779Z,0
2017-01-01T03:38:58.884Z,0
2017-01-01T03:39:58.813Z,0
2017-01-01T03:40:58.753Z,0
2017-01-01T03:41:58.798Z,0
2017-01-01T03:42:58.769Z,0
2017-01-01T03:43:58.823Z,0
2017-01-01T03:44:58.847Z,0
2017-01-01T03:45:58.774Z,0
2017-01-01T03:46:58.795Z,0
2017-01-01T03:47:58.792Z,0
2017-01-01T03:48:58.811Z,0
2017-01-01T03:49:58.770Z,0
2017-01-01T03:50:58.761Z,0
2017-01-01T03:51:58.769Z,0
2017-01-01T03:52:58.746Z,0
2017-01-01T03:53:58.784Z,0
2017-01-01T03:54:58.762Z,0
2017-01-01T03:55:58.805Z,0
2017-01-01T03:56:58.759Z,0
2017-01-01T03:57:58.831Z,0
2017-01-01T03:58:58.773Z,0
2017-01-01T03:59:58.820Z,0
2017-01-01T04:00:58.798Z,0
2017-01-01T04:01:58.792Z,0
2017-01-01T04:02:58.795Z,0
2017-01-01T04:03:58.763Z,0
2017-01-01T04:04:58.824Z,0
2017-01-01T04:05:58.796Z,0
2017-01-01T04:06:58.801Z,0
2017-01-01T04:07:58.778Z,0
2017-01-01T04:08:58.781Z,0
2017-01-01T04:09:58.763Z,0
2017-01-01T04:10:58.764Z,0
2017-01-01T04:11:58.793Z,0
2017-01-01T04:12:58.768Z,0
2017-01-01T04:13:58.817Z,0
2017-01-01T04:14:58.796Z,0
2017-01-01T04:15:58.805Z,0
2017-01-01T04:16:58.790Z,0
2017-01-01T04:17:58.830Z,0
2017-01-01T04:18:58.796Z,0
2017-01-01T04:19:58.797Z,0
2017-01-01T04:20:58.806Z,0
2017-01-01T04:21:58.798Z,0
2017-01-01T04:22:58.780Z,0
2017-01-01T04:23:58.809Z,0
2017-01-01T04:24:58.776Z,0
2017-01-01T04:25:58.783Z,0
2017-01-01T04:26:58.811Z,0
2017-01-01T04:27:58.829Z,0
2017-01-01T04:28:58.843Z,0
2017-01-01T04:29:58.812Z,0
2017-01-01T04:30:58.803Z,0
2017-01-01T04:31:58.815Z,0
2017-01-01T04:32:58.780Z,0
2017-01-01T04:33:58.785Z,0
2017-01-01T04:34:58.792Z,0
2017-01-01T04:35:58.779Z,0
2017-01-01T04:36:58.778Z,0
2017-01-01T04:37:58.784Z,0
2017-01-01T04:38:58.805Z,0
2017-01-01T04:39:58.911Z,0
2017-01-01T04:40:58.834Z,0
2017-01-01T04:41:58.834Z,0
2017-01-01T04:42:58.830Z,0
2017-01-01T04:43:58.879Z,0
2017-01-01T04:44:59.026Z,0
2017-01-01T04:45:58.819Z,0
2017-01-01T04:46:58.833Z,0
2017-01-01T04:47:58.833Z,0
2017-01-01T04:48:58.831Z,0
2017-01-01T04:49:58.876Z,0
2017-01-01T04:50:58.807Z,0
2017-01-01T04:51:58.895Z,0
2017-01-01T04:52:58.808Z,0
2017-01-01T04:53:58.814Z,0
2017-01-01T04:54:58.803Z,0
2017-01-01T04:55:58.820Z,0
2017-01-01T04:56:58.835Z,0
2017-01-01T04:57:59.279Z,0
2017-01-01T04:58:58.873Z,0
2017-01-01T04:59:58.807Z,0
2017-01-01T05:00:58.798Z,0
2017-01-01T05:01:58.831Z,0
2017-01-01T05:02:58.811Z,0
2017-01-01T05:03:58.833Z,0
2017-01-01T05:04:58.810Z,0
2017-01-01T05:05:58.824Z,0
2017-01-01T05:06:58.795Z,0
2017-01-01T05:07:58.811Z,0
2017-01-01T05:08:58.802Z,0
2017-01-01T05:09:58.858Z,0
2017-01-01T05:10:58.801Z,0
2017-01-01T05:11:58.839Z,0
2017-01-01T05:12:58.799Z,0
2017-01-01T05:13:58.789Z,0
2017-01-01T05:14:58.840Z,0
2017-01-01T05:15:58.804Z,0
2017-01-01T05:16:58.809Z,0
2017-01-01T05:17:58.818Z,0
2017-01-01T05:18:58.823Z,0
2017-01-01T05:19:58.803Z,0
2017-01-01T05:20:58.808Z,0
2017-01-01T05:21:58.804Z,0
2017-01-01T05:22:58.797Z,0
2017-01-01T05:23:58.827Z,0
2017-01-01T05:24:58.823Z,0
2017-01-01T05:25:58.874Z,0
2017-01-01T05:26:58.841Z,0
2017-01-01T05:27:58.856Z,0
2017-01-01T05:28:58.834Z,0
2017-01-01T05:29:58.859Z,0
2017-01-01T05:30:58.837Z,0
2017-01-01T05:31:58.844Z,0
2017-01-01T05:32:58.866Z,0
2017-01-01T05:33:58.833Z,0
2017-01-01T05:34:58.832Z,0
2017-01-01T05:35:58.846Z,0
2017-01-01T05:36:58.897Z,0
2017-01-01T05:37:58.823Z,0
2017-01-01T05:38:58.888Z,0
2017-01-01T05:39:58.825Z,0
2017-01-01T05:40:58.849Z,0
2017-01-01T05:41:58.838Z,0
2017-01-01T05:42:58.847Z,0
2017-01-01T05:43:58.826Z,0
2017-01-01T05:44:58.845Z,0
2017-01-01T05:45:58.870Z,0
2017-01-01T05:46:58.865Z,0
2017-01-01T05:47:58.892Z,0
2017-01-01T05:48:58.948Z,0
2017-01-01T05:49:58.886Z,0
2017-01-01T05:50:58.882Z,0
2017-01-01T05:51:58.870Z,0
2017-01-01T05:52:58.839Z,0
2017-01-01T05:53:58.846Z,0
2017-01-01T05:54:58.875Z,0
2017-01-01T05:55:58.843Z,0
2017-01-01T05:56:58.837Z,0
2017-01-01T05:57:58.885Z,0
2017-01-01T05:58:58.881Z,0
2017-01-01T05:59:58.903Z,0
2017-01-01T06:00:58.876Z,0
2017-01-01T06:01:58.917Z,0
2017-01-01T06:02:58.874Z,0
2017-01-01T06:03:58.853Z,0
2017-01-01T06:04:58.854Z,0
2017-01-01T06:05:58.873Z,0
2017-01-01T06:06:58.882Z,0
2017-01-01T06:07:58.886Z,0
2017-01-01T06:08:58.892Z,0
2017-01-01T06:09:58.891Z,0
2017-01-01T06:10:58.858Z,0
2017-01-01T06:11:58.857Z,0
2017-01-01T06:12:58.843Z,0
2017-01-01T06:13:58.886Z,0
2017-01-01T06:14:58.842Z,0
2017-01-01T06:15:58.915Z,0
2017-01-01T06:16:58.832Z,0
2017-01-01T06:17:58.869Z,0
2017-01-01T06:18:58.839Z,0
2017-01-01T06:19:58.865Z,0
2017-01-01T06:20:58.869Z,0
2017-01-01T06:21:58.875Z,0
2017-01-01T06:22:58.848Z,0
2017-01-01T06:23:58.893Z,0
2017-01-01T06:24:58.848Z,0
2017-01-01T06:25:58.911Z,0
2017-01-01T06:26:58.875Z,0
2017-01-01T06:27:58.880Z,0
2017-01-01T06:28:58.887Z,0
2017-01-01T06:29:58.907Z,0
2017-01-01T06:30:58.903Z,0
2017-01-01T06:31:58.865Z,0
2017-01-01T06:32:58.859Z,0
2017-01-01T06:33:58.869Z,0
2017-01-01T06:34:58.886Z,0
2017-01-01T06:35:58.902Z,0
2017-01-01T06:36:58.908Z,0
2017-01-01T06:37:58.884Z,0
2017-01-01T06:38:58.898Z,0
2017-01-01T06:39:58.876Z,0
2017-01-01T06:40:58.879Z,0
2017-01-01T06:41:58.876Z,0
2017-01-01T06:42:58.881Z,0
2017-01-01T06:43:58.891Z,0
2017-01-01T06:44:58.904Z,0
2017-01-01T06:45:58.882Z,0
2017-01-01T06:46:58.892Z,0
2017-01-01T06:47:58.949Z,0
2017-01-01T06:48:58.856Z,0
2017-01-01T06:49:58.922Z,0
2017-01-01T06:50:58.885Z,0
2017-01-01T06:51:58.891Z,0
2017-01-01T06:52:58.906Z,0
2017-01-01T06:53:58.879Z,0
2017-01-01T06:54:58.894Z,0
2017-01-01T06:55:58.872Z,0
2017-01-01T06:56:58.894Z,0
2017-01-01T06:57:58.905Z,0
2017-01-01T06:58:58.886Z,0
2017-01-01T06:59:58.893Z,0
2017-01-01T07:00:58.917Z,0
2017-01-01T07:01:58.904Z,0
2017-01-01T07:02:58.900Z,0
2017-01-01T07:03:58.886Z,0
2017-01-01T07:04:58.880Z,0
2017-01-01T07:05:58.900Z,0
2017-01-01T07:06:58.886Z,0
2017-01-01T07:07:58.855Z,0
2017-01-01T07:08:58.864Z,0
2017-01-01T07:09:58.879Z,0
2017-01-01T07:10:58.898Z,0
2017-01-01T07:11:58.947Z,0
2017-01-01T07:12:58.891Z,0
2017-01-01T07:13:58.915Z,0
2017-01-01T07:14:58.890Z,0
2017-01-01T07:15:58.916Z,0
2017-01-01T07:16:58.888Z,0
2017-01-01T07:17:58.910Z,0
2017-01-01T07:18:58.924Z,0
2017-01-01T07:19:58.887Z,0
2017-01-01T07:20:58.905Z,0
2017-01-01T07:21:58.918Z,0
2017-01-01T07:22:59.609Z,0
2017-01-01T07:23:58.882Z,0
2017-01-01T07:24:58.996Z,0
2017-01-01T07:25:59.625Z,0
2017-01-01T07:27:00.222Z,0
2017-01-01T07:27:59.086Z,0
2017-01-01T07:28:58.946Z,0
2017-01-01T07:29:58.893Z,0
2017-01-01T07:30:58.946Z,0
2017-01-01T07:31:58.898Z,0
2017-01-01T07:32:59.049Z,0
2017-01-01T07:33:58.926Z,0
2017-01-01T07:34:58.916Z,0
2017-01-01T07:35:58.909Z,0
2017-01-01T07:36:58.902Z,0
2017-01-01T07:37:58.908Z,0
2017-01-01T07:38:58.911Z,0
2017-01-01T07:39:59.698Z,0
2017-01-01T07:40:58.910Z,0
2017-01-01T07:41:58.892Z,0
2017-01-01T07:42:58.895Z,0
2017-01-01T07:43:58.889Z,0
2017-01-01T07:44:58.883Z,0
2017-01-01T07:45:58.904Z,0
2017-01-01T07:46:58.912Z,0
2017-01-01T07:47:58.918Z,0
2017-01-01T07:48:58.935Z,0
2017-01-01T07:49:58.918Z,0
2017-01-01T07:50:58.938Z,0
2017-01-01T07:51:58.956Z,0
2017-01-01T07:52:58.920Z,0
2017-01-01T07:53:58.970Z,0
2017-01-01T07:54:58.905Z,5
2017-01-01T07:55:58.926Z,5
2017-01-01T07:56:58.905Z,5
2017-01-01T07:57:58.901Z,5
2017-01-01T07:58:58.922Z,5
2017-01-01T07:59:58.899Z,5
2017-01-01T08:00:58.921Z,5
2017-01-01T08:01:58.928Z,5
2017-01-01T08:02:58.935Z,5
2017-01-01T08:03:58.941Z,5
2017-01-01T08:04:58.905Z,5
2017-01-01T08:05:58.928Z,5
2017-01-01T08:06:58.916Z,5
2017-01-01T08:07:58.923Z,5
2017-01-01T08:08:58.915Z,5
2017-01-01T08:09:58.908Z,5
2017-01-01T08:10:58.920Z,10
2017-01-01T08:11:58.945Z,10
2017-01-01T08:12:58.949Z,10
2017-01-01T08:13:58.932Z,10
2017-01-01T08:14:58.909Z,10
2017-01-01T08:15:58.959Z,10
2017-01-01T08:16:58.997Z,10
2017-01-01T08:17:58.938Z,10
2017-01-01T08:18:58.966Z,10
2017-01-01T08:19:58.968Z,10
2017-01-01T08:20:58.938Z,10
2017-01-01T08:21:58.964Z,15
2017-01-01T08:22:58.943Z,15
2017-01-01T08:23:59.313Z,15
2017-01-01T08:24:58.991Z,15
2017-01-01T08:25:58.915Z,15
2017-01-01T08:26:58.906Z,15
2017-01-01T08:27:58.937Z,15
2017-01-01T08:28:58.936Z,15
2017-01-01T08:29:58.949Z,20
2017-01-01T08:30:58.995Z,20
2017-01-01T08:31:58.936Z,20
2017-01-01T08:32:58.942Z,20
2017-01-01T08:33:58.925Z,20
2017-01-01T08:34:58.917Z,25
2017-01-01T08:35:58.925Z,25
2017-01-01T08:36:58.931Z,25
2017-01-01T08:37:58.938Z,25
2017-01-01T08:38:58.974Z,25
2017-01-01T08:39:58.983Z,25
2017-01-01T08:40:58.972Z,25
2017-01-01T08:41:58.981Z,25
2017-01-01T08:42:58.970Z,30
2017-01-01T08:43:58.982Z,30
2017-01-01T08:44:58.960Z,30
2017-01-01T08:45:58.936Z,35
2017-01-01T08:46:58.919Z,40
2017-01-01T08:47:58.917Z,40
2017-01-01T08:48:58.982Z,40
2017-01-01T08:49:58.961Z,40
2017-01-01T08:50:58.965Z,45
2017-01-01T08:51:58.936Z,50
2017-01-01T08:52:58.923Z,45
2017-01-01T08:53:58.943Z,50
2017-01-01T08:54:58.968Z,50
2017-01-01T08:55:58.955Z,50
2017-01-01T08:56:58.982Z,55
2017-01-01T08:57:58.944Z,55
2017-01-01T08:58:58.976Z,55
2017-01-01T08:59:58.941Z,60
2017-01-01T09:00:58.947Z,55
2017-01-01T09:01:58.925Z,60
2017-01-01T09:02:58.961Z,60
2017-01-01T09:03:59.011Z,55
2017-01-01T09:04:58.958Z,55
2017-01-01T09:05:58.953Z,50
2017-01-01T09:06:58.928Z,50
2017-01-01T09:07:58.980Z,55
2017-01-01T09:08:58.956Z,55
2017-01-01T09:09:58.936Z,50
2017-01-01T09:10:58.956Z,50
2017-01-01T09:11:58.992Z,50
2017-01-01T09:12:58.969Z,50
2017-01-01T09:13:59.092Z,50
2017-01-01T09:14:58.995Z,50
2017-01-01T09:15:58.975Z,45
2017-01-01T09:16:59.010Z,55
2017-01-01T09:17:58.966Z,65
2017-01-01T09:18:58.986Z,85
2017-01-01T09:19:58.994Z,85
2017-01-01T09:20:58.969Z,85
2017-01-01T09:21:58.998Z,85
2017-01-01T09:22:58.983Z,90
2017-01-01T09:23:58.982Z,85
2017-01-01T09:24:58.984Z,90
2017-01-01T09:25:58.991Z,90
2017-01-01T09:26:58.976Z,90
2017-01-01T09:27:58.957Z,95
2017-01-01T09:28:58.953Z,95
2017-01-01T09:29:58.962Z,95
2017-01-01T09:30:58.957Z,95
2017-01-01T09:31:58.950Z,95
2017-01-01T09:32:58.949Z,95
2017-01-01T09:33:58.967Z,95
2017-01-01T09:34:58.970Z,95
2017-01-01T09:35:58.977Z,95
2017-01-01T09:36:59.032Z,95
2017-01-01T09:37:58.976Z,95
2017-01-01T09:38:58.984Z,105
2017-01-01T09:39:58.998Z,105
2017-01-01T09:40:58.986Z,105
2017-01-01T09:41:58.990Z,105
2017-01-01T09:42:58.983Z,100
2017-01-01T09:43:58.974Z,105
2017-01-01T09:44:59.008Z,100
2017-01-01T09:45:58.971Z,100
2017-01-01T09:46:58.999Z,100
2017-01-01T09:47:58.985Z,100
2017-01-01T09:48:58.975Z,100
2017-01-01T09:49:59.004Z,100
2017-01-01T09:50:58.966Z,100
2017-01-01T09:51:58.972Z,100
2017-01-01T09:52:58.994Z,100
2017-01-01T09:53:58.987Z,100
2017-01-01T09:54:58.995Z,100
2017-01-01T09:55:58.988Z,100
2017-01-01T09:56:59.006Z,100
2017-01-01T09:57:59.088Z,100
2017-01-01T09:58:58.991Z,100
2017-01-01T09:59:58.981Z,100
2017-01-01T10:00:58.988Z,100
2017-01-01T10:01:58.966Z,100
2017-01-01T10:02:59.017Z,100
2017-01-01T10:03:58.965Z,100
2017-01-01T10:04:58.987Z,100
2017-01-01T10:05:59.008Z,100
2017-01-01T10:06:59.025Z,100
2017-01-01T10:07:59.078Z,105
2017-01-01T10:08:59.011Z,100
2017-01-01T10:09:58.989Z,100
2017-01-01T10:10:59.001Z,105
2017-01-01T10:11:59.033Z,105
2017-01-01T10:12:58.993Z,100
2017-01-01T10:13:59.009Z,100
2017-01-01T10:14:59.044Z,100
2017-01-01T10:15:59.015Z,100
2017-01-01T10:16:59.008Z,100
2017-01-01T10:17:59.001Z,100
2017-01-01T10:18:59.042Z,95
2017-01-01T10:19:58.985Z,95
2017-01-01T10:20:58.980Z,95
2017-01-01T10:21:59.118Z,95
2017-01-01T10:22:58.991Z,95
2017-01-01T10:23:58.986Z,100
2017-01-01T10:24:59.009Z,100
2017-01-01T10:25:59.026Z,100
2017-01-01T10:26:59.034Z,100
2017-01-01T10:27:59.021Z,100
2017-01-01T10:28:59.001Z,100
2017-01-01T10:29:59.067Z,100
2017-01-01T10:30:59.028Z,100
2017-01-01T10:31:59.050Z,95
2017-01-01T10:32:59.014Z,95
2017-01-01T10:33:59.009Z,95
2017-01-01T10:34:59.014Z,95
2017-01-01T10:35:59.050Z,100
2017-01-01T10:36:58.997Z,100
2017-01-01T10:37:59.049Z,100
2017-01-01T10:38:59.026Z,100
2017-01-01T10:39:59.692Z,100
2017-01-01T10:41:06.560Z,100
2017-01-01T10:42:10.636Z,95
2017-01-01T10:42:59.054Z,95
2017-01-01T10:43:59.003Z,95
2017-01-01T10:44:59.127Z,95
2017-01-01T10:45:59.056Z,95
2017-01-01T10:46:59.157Z,95
2017-01-01T10:47:59.386Z,95
2017-01-01T10:48:59.650Z,90
2017-01-01T10:49:59.057Z,90
2017-01-01T10:50:59.051Z,95
2017-01-01T10:51:59.043Z,95
2017-01-01T10:52:59.101Z,100
2017-01-01T10:53:59.071Z,95
2017-01-01T10:54:59.045Z,95
2017-01-01T10:55:59.078Z,95
2017-01-01T10:56:59.116Z,100
2017-01-01T10:57:59.061Z,100
2017-01-01T10:58:59.064Z,100
2017-01-01T10:59:59.341Z,100
2017-01-01T11:00:59.083Z,100
2017-01-01T11:01:59.471Z,90
2017-01-01T11:02:59.058Z,85
2017-01-01T11:03:59.020Z,85
2017-01-01T11:04:59.416Z,80
2017-01-01T11:05:59.359Z,80
2017-01-01T11:06:59.041Z,80
2017-01-01T11:08:02.559Z,80
2017-01-01T11:08:59.027Z,80
2017-01-01T11:09:59.127Z,80
2017-01-01T11:10:59.381Z,80
2017-01-01T11:11:59.112Z,75
2017-01-01T11:12:59.088Z,80
2017-01-01T11:13:59.403Z,80
2017-01-01T11:14:59.074Z,80
2017-01-01T11:15:59.098Z,85
2017-01-01T11:16:59.051Z,80
2017-01-01T11:17:59.140Z,80
2017-01-01T11:18:59.070Z,90
2017-01-01T11:19:59.067Z,90
2017-01-01T11:20:59.055Z,95
2017-01-01T11:21:59.088Z,100
2017-01-01T11:22:59.042Z,100
2017-01-01T11:23:59.016Z,100
2017-01-01T11:24:59.085Z,95
2017-01-01T11:25:59.039Z,95
2017-01-01T11:26:59.021Z,100
2017-01-01T11:27:59.027Z,100
2017-01-01T11:28:59.065Z,95
2017-01-01T11:29:59.041Z,105
2017-01-01T11:30:59.123Z,100
2017-01-01T11:31:59.150Z,100
2017-01-01T11:32:59.195Z,100
2017-01-01T11:33:59.075Z,100
2017-01-01T11:34:59.053Z,100
2017-01-01T11:35:59.071Z,100
2017-01-01T11:36:59.079Z,100
2017-01-01T11:37:59.125Z,100
2017-01-01T11:38:59.081Z,100
2017-01-01T11:39:59.111Z,105
2017-01-01T11:40:59.094Z,100
2017-01-01T11:41:59.316Z,105
2017-01-01T11:42:59.067Z,105
2017-01-01T11:43:59.051Z,100
2017-01-01T11:44:59.118Z,100
2017-01-01T11:45:59.087Z,100
2017-01-01T11:46:59.202Z,105
2017-01-01T11:47:59.956Z,100
2017-01-01T11:48:59.042Z,105
2017-01-01T11:49:59.035Z,110
2017-01-01T11:50:59.393Z,110
2017-01-01T11:51:59.471Z,110
2017-01-01T11:52:59.217Z,105
2017-01-01T11:53:59.047Z,105
2017-01-01T11:54:59.332Z,110
2017-01-01T11:55:59.051Z,120
2017-01-01T11:56:59.073Z,115
2017-01-01T11:57:59.071Z,115
2017-01-01T11:58:59.056Z,125
2017-01-01T11:59:59.062Z,120
2017-01-01T12:00:59.422Z,125
2017-01-01T12:01:59.096Z,110
2017-01-01T12:02:59.088Z,120
2017-01-01T12:03:59.089Z,105
2017-01-01T12:04:59.202Z,105
2017-01-01T12:05:59.082Z,105
2017-01-01T12:06:59.110Z,105
2017-01-01T12:07:59.430Z,105
2017-01-01T12:08:59.081Z,105
2017-01-01T12:09:59.073Z,105
2017-01-01T12:10:59.152Z,105
2017-01-01T12:11:59.212Z,100
2017-01-01T12:12:59.108Z,105
2017-01-01T12:13:59.205Z,105
2017-01-01T12:14:59.092Z,100
2017-01-01T12:15:59.113Z,100
2017-01-01T12:16:59.092Z,100
2017-01-01T12:17:59.073Z,105
2017-01-01T12:18:59.109Z,105
2017-01-01T12:19:59.128Z,100
2017-01-01T12:20:59.137Z,100
2017-01-01T12:22:01.611Z,100
2017-01-01T12:22:59.135Z,100
2017-01-01T12:23:59.064Z,105
2017-01-01T12:24:59.092Z,100
2017-01-01T12:26:01.100Z,95
2017-01-01T12:26:59.366Z,100
2017-01-01T12:27:59.095Z,95
2017-01-01T12:28:59.219Z,95
2017-01-01T12:29:59.930Z,95
2017-01-01T12:30:59.139Z,95
2017-01-01T12:31:59.287Z,95
2017-01-01T12:32:59.516Z,95
2017-01-01T12:33:59.677Z,95
2017-01-01T12:34:59.132Z,95
2017-01-01T12:35:59.143Z,95
2017-01-01T12:36:59.193Z,95
2017-01-01T12:38:12.831Z,95
2017-01-01T12:38:59.744Z,95
2017-01-01T12:40:10.622Z,95
2017-01-01T12:41:07.680Z,95
2017-01-01T12:42:10.598Z,95
2017-01-01T12:43:02.741Z,95
2017-01-01T12:44:06.566Z,95
2017-01-01T12:45:11.869Z,95
2017-01-01T12:46:13.185Z,95
2017-01-01T12:47:11.177Z,95
2017-01-01T12:48:12.204Z,95
2017-01-01T12:49:12.344Z,95
2017-01-01T12:50:11.166Z,95
2017-01-01T12:51:12.795Z,95
2017-01-01T12:52:11.727Z,95
2017-01-01T12:53:11.994Z,90
2017-01-01T12:54:11.846Z,95
2017-01-01T12:55:13.153Z,95
2017-01-01T12:56:12.232Z,95
2017-01-01T12:57:12.108Z,95
2017-01-01T12:58:11.854Z,95
2017-01-01T12:59:11.681Z,95
2017-01-01T13:00:11.603Z,90
2017-01-01T13:01:09.268Z,90
2017-01-01T13:02:12.143Z,90
2017-01-01T13:03:11.029Z,90
2017-01-01T13:04:09.778Z,90
2017-01-01T13:04:59.518Z,90
2017-01-01T13:05:59.385Z,90
2017-01-01T13:06:59.615Z,90
2017-01-01T13:07:59.354Z,95
2017-01-01T13:08:59.456Z,90
2017-01-01T13:09:59.435Z,90
2017-01-01T13:10:59.422Z,90
2017-01-01T13:11:59.303Z,90
2017-01-01T13:12:59.598Z,90
2017-01-01T13:13:59.526Z,90
2017-01-01T13:14:59.445Z,90
2017-01-01T13:15:59.166Z,90
2017-01-01T13:16:59.138Z,90
2017-01-01T13:17:59.505Z,90
2017-01-01T13:18:59.727Z,90
2017-01-01T13:19:59.660Z,90
2017-01-01T13:20:59.333Z,90
2017-01-01T13:21:59.394Z,90
2017-01-01T13:22:59.410Z,90
2017-01-01T13:23:59.458Z,90
2017-01-01T13:25:05.417Z,90
2017-01-01T13:25:59.772Z,90
2017-01-01T13:26:59.436Z,90
2017-01-01T13:28:00.440Z,90
2017-01-01T13:29:00.496Z,90
2017-01-01T13:29:59.396Z,90
2017-01-01T13:30:59.942Z,90
2017-01-01T13:31:59.435Z,85
2017-01-01T13:32:59.694Z,85
2017-01-01T13:33:59.639Z,85
2017-01-01T13:34:59.474Z,85
2017-01-01T13:35:59.515Z,85
2017-01-01T13:36:59.525Z,85
2017-01-01T13:37:59.458Z,80
2017-01-01T13:38:59.473Z,80
2017-01-01T13:39:59.467Z,80
2017-01-01T13:40:59.496Z,80
2017-01-01T13:41:59.276Z,80
2017-01-01T13:42:59.451Z,80
2017-01-01T13:43:59.431Z,80
2017-01-01T13:44:59.614Z,80
2017-01-01T13:45:59.346Z,75
2017-01-01T13:46:59.601Z,75
2017-01-01T13:47:59.421Z,75
2017-01-01T13:48:59.510Z,80
2017-01-01T13:49:59.436Z,80
2017-01-01T13:50:59.624Z,80
2017-01-01T13:51:59.533Z,75
2017-01-01T13:52:59.415Z,75
2017-01-01T13:53:59.401Z,75
2017-01-01T13:54:59.727Z,75
2017-01-01T13:56:00.622Z,75
2017-01-01T13:56:59.568Z,80
2017-01-01T13:57:59.553Z,80
2017-01-01T13:58:59.458Z,75
2017-01-01T13:59:59.584Z,75
2017-01-01T14:00:59.631Z,75
2017-01-01T14:01:59.503Z,75
2017-01-01T14:02:59.463Z,75
2017-01-01T14:03:59.690Z,75
2017-01-01T14:04:59.680Z,70
2017-01-01T14:05:59.551Z,70
2017-01-01T14:06:59.226Z,70
2017-01-01T14:07:59.381Z,70
2017-01-01T14:08:59.363Z,70
2017-01-01T14:09:59.558Z,70
2017-01-01T14:10:59.439Z,70
2017-01-01T14:11:59.512Z,65
2017-01-01T14:12:59.745Z,65
2017-01-01T14:13:59.814Z,65
2017-01-01T14:14:59.340Z,60
2017-01-01T14:15:59.495Z,55
2017-01-01T14:16:59.611Z,55
2017-01-01T14:17:59.660Z,50
2017-01-01T14:18:59.325Z,50
2017-01-01T14:19:59.484Z,45
2017-01-01T14:20:59.640Z,45
2017-01-01T14:21:59.685Z,45
2017-01-01T14:22:59.415Z,45
2017-01-01T14:23:59.861Z,45
2017-01-01T14:24:59.446Z,40
2017-01-01T14:26:00.024Z,40
2017-01-01T14:26:59.397Z,40
2017-01-01T14:27:59.571Z,40
2017-01-01T14:28:59.873Z,40